Time;durP1;ratioP1;P1;durP2;ratioP2;P2;SDS_P1;SDS_P2;PMS_P1;PMS_P2;Temp;Humidity;BMP_temperature;BMP_pressure;BME280_temperature;BME280_humidity;BME280_pressure;Samples;Min_cycle;Max_cycle;Signal;HPM_P1;HPM_P2
2023/07/18 00:00:54;;;;;;;18.07;12.90;;;;;;;;;;10416893;28;20038;-71
2023/07/18 00:05:55;;;;;;;17.67;12.18;;;;;;;;;;10417276;28;20282;-74
2023/07/18 00:10:55;;;;;;;13.98;11.55;;;;;;;;;;10416012;28;20080;-74
2023/07/18 00:15:55;;;;;;;21.85;12.50;;;;;;;;;;10416862;28;20107;-73
2023/07/18 00:20:55;;;;;;;16.10;11.90;;;;;;;;;;10417102;28;20021;-73
2023/07/18 00:25:56;;;;;;;17.75;12.45;;;;;;;;;;10416749;28;20017;-74
2023/07/18 00:30:56;;;;;;;16.15;12.38;;;;;;;;;;10385049;28;20069;-73
2023/07/18 00:35:57;;;;;;;16.52;12.40;;;;;;;;;;10394228;28;20056;-73
2023/07/18 00:40:57;;;;;;;17.63;13.38;;;;;;;;;;10414862;28;20071;-73
2023/07/18 00:45:57;;;;;;;24.15;12.75;;;;;;;;;;10414921;28;20152;-73
2023/07/18 00:50:58;;;;;;;16.30;12.03;;;;;;;;;;10407143;28;20030;-72
2023/07/18 00:55:59;;;;;;;16.52;12.95;;;;;;;;;;10380947;28;20022;-73
2023/07/18 01:01:00;;;;;;;14.32;12.38;;;;;;;;;;10423654;28;20215;-72
2023/07/18 01:06:00;;;;;;;16.38;12.40;;;;;;;;;;10385596;28;20030;-72
2023/07/18 01:11:01;;;;;;;18.90;12.77;;;;;;;;;;10400755;28;20013;-73
2023/07/18 01:16:01;;;;;;;15.80;12.65;;;;;;;;;;10421808;28;20037;-75
2023/07/18 01:21:02;;;;;;;16.98;11.93;;;;;;;;;;10417523;28;20099;-72
2023/07/18 01:26:02;;;;;;;16.92;12.45;;;;;;;;;;10377055;28;20053;-73
2023/07/18 01:31:02;;;;;;;13.75;11.20;;;;;;;;;;10400635;28;20235;-73
2023/07/18 01:36:03;;;;;;;16.50;11.55;;;;;;;;;;10422329;28;20028;-73
2023/07/18 01:41:03;;;;;;;15.30;12.30;;;;;;;;;;10421030;28;20017;-73
2023/07/18 01:46:03;;;;;;;16.15;12.20;;;;;;;;;;10421970;28;20200;-72
2023/07/18 01:51:04;;;;;;;18.73;12.87;;;;;;;;;;10421912;28;20026;-73
2023/07/18 01:56:04;;;;;;;18.10;12.02;;;;;;;;;;10389229;28;20025;-72
2023/07/18 02:01:04;;;;;;;21.73;12.98;;;;;;;;;;10390984;28;20033;-72
2023/07/18 02:06:04;;;;;;;20.93;13.47;;;;;;;;;;10419967;28;20033;-72
2023/07/18 02:11:05;;;;;;;16.55;14.45;;;;;;;;;;10380330;28;20310;-74
2023/07/18 02:16:05;;;;;;;19.27;14.35;;;;;;;;;;10379746;28;20266;-74
2023/07/18 02:21:05;;;;;;;17.38;13.30;;;;;;;;;;10381098;28;20060;-73
2023/07/18 02:26:05;;;;;;;19.83;14.45;;;;;;;;;;10416524;28;20025;-72
2023/07/18 02:31:06;;;;;;;21.20;15.13;;;;;;;;;;10408390;28;20024;-73
2023/07/18 02:36:06;;;;;;;19.70;13.07;;;;;;;;;;10412489;28;20010;-73
2023/07/18 02:41:06;;;;;;;21.73;14.17;;;;;;;;;;10414673;28;20207;-73
2023/07/18 02:46:06;;;;;;;16.25;13.07;;;;;;;;;;10401696;28;20045;-73
2023/07/18 02:51:07;;;;;;;20.60;14.93;;;;;;;;;;10403467;28;20022;-72
2023/07/18 02:56:07;;;;;;;18.65;14.65;;;;;;;;;;10410039;28;20292;-73
2023/07/18 03:01:07;;;;;;;19.25;15.13;;;;;;;;;;10377870;28;20036;-72
2023/07/18 03:06:08;;;;;;;23.50;15.70;;;;;;;;;;10410187;28;20017;-72
2023/07/18 03:11:08;;;;;;;19.55;15.30;;;;;;;;;;10418055;28;20072;-73
2023/07/18 03:16:09;;;;;;;18.05;14.70;;;;;;;;;;10405387;28;20197;-73
2023/07/18 03:21:09;;;;;;;18.80;14.68;;;;;;;;;;10376178;28;20128;-74
2023/07/18 03:26:09;;;;;;;24.27;14.63;;;;;;;;;;10396525;28;20021;-73
2023/07/18 03:31:09;;;;;;;26.95;16.13;;;;;;;;;;10417117;28;20020;-72
2023/07/18 03:36:10;;;;;;;19.27;15.18;;;;;;;;;;10416991;28;20084;-73
2023/07/18 03:41:10;;;;;;;23.00;16.25;;;;;;;;;;10417105;28;20366;-74
2023/07/18 03:46:10;;;;;;;21.17;15.07;;;;;;;;;;10416444;28;20045;-72
2023/07/18 03:51:10;;;;;;;25.80;18.58;;;;;;;;;;10416718;28;20018;-74
2023/07/18 03:56:12;;;;;;;24.60;16.25;;;;;;;;;;10404807;28;20114;-72
2023/07/18 04:01:12;;;;;;;24.88;15.48;;;;;;;;;;10385767;28;20552;-73
2023/07/18 04:06:13;;;;;;;23.33;15.93;;;;;;;;;;10416080;28;20033;-72
2023/07/18 04:11:13;;;;;;;26.98;16.73;;;;;;;;;;10405056;28;20018;-74
2023/07/18 04:16:13;;;;;;;25.05;15.70;;;;;;;;;;10416733;28;20032;-74
2023/07/18 04:21:13;;;;;;;27.73;17.13;;;;;;;;;;10416281;28;20044;-73
2023/07/18 04:26:14;;;;;;;26.80;18.92;;;;;;;;;;10415601;28;20304;-73
2023/07/18 04:31:14;;;;;;;31.48;17.23;;;;;;;;;;10417097;28;20029;-72
2023/07/18 04:36:15;;;;;;;24.15;16.98;;;;;;;;;;10395432;28;20244;-73
2023/07/18 04:41:16;;;;;;;25.48;16.40;;;;;;;;;;10381420;28;20033;-74
2023/07/18 04:46:16;;;;;;;23.85;15.65;;;;;;;;;;10365456;28;20042;-74
2023/07/18 04:51:16;;;;;;;19.47;16.43;;;;;;;;;;10357840;28;20041;-74
2023/07/18 04:56:17;;;;;;;20.35;14.93;;;;;;;;;;10367614;28;20515;-74
2023/07/18 05:01:17;;;;;;;26.55;13.73;;;;;;;;;;10369313;28;20045;-74
2023/07/18 05:06:17;;;;;;;19.20;13.20;;;;;;;;;;10362077;28;20025;-74
2023/07/18 05:11:17;;;;;;;18.08;12.18;;;;;;;;;;10357584;28;20328;-74
2023/07/18 05:16:18;;;;;;;15.38;11.70;;;;;;;;;;10360935;28;20030;-74
2023/07/18 05:21:18;;;;;;;17.17;11.10;;;;;;;;;;10371903;28;20362;-74
2023/07/18 05:26:18;;;;;;;20.20;12.25;;;;;;;;;;10354943;28;20022;-74
2023/07/18 05:31:18;;;;;;;16.25;11.90;;;;;;;;;;10361854;28;20300;-73
2023/07/18 05:36:19;;;;;;;24.40;13.30;;;;;;;;;;10352868;28;20025;-73
2023/07/18 05:41:19;;;;;;;18.90;14.20;;;;;;;;;;10355142;28;20050;-74
2023/07/18 05:46:19;;;;;;;18.00;13.55;;;;;;;;;;10360149;28;20034;-73
2023/07/18 05:51:20;;;;;;;21.52;12.45;;;;;;;;;;10358584;28;20046;-75
2023/07/18 05:56:20;;;;;;;27.30;12.30;;;;;;;;;;10352816;28;20197;-75
2023/07/18 06:01:20;;;;;;;21.70;11.45;;;;;;;;;;10361045;28;20030;-75
2023/07/18 06:06:20;;;;;;;19.35;11.55;;;;;;;;;;10353755;28;20021;-74
2023/07/18 06:11:22;;;;;;;13.02;9.15;;;;;;;;;;10350178;28;20312;-74
2023/07/18 06:16:22;;;;;;;27.20;12.05;;;;;;;;;;10352461;28;20018;-73
2023/07/18 06:21:26;;;;;;;16.05;10.10;;;;;;;;;;10351530;28;20026;-75
2023/07/18 06:26:26;;;;;;;16.95;10.38;;;;;;;;;;10360811;28;20022;-74
2023/07/18 06:31:28;;;;;;;26.25;11.27;;;;;;;;;;10356398;28;20247;-74
2023/07/18 06:36:28;;;;;;;14.43;9.60;;;;;;;;;;10360217;28;20369;-73
2023/07/18 06:41:28;;;;;;;14.93;9.70;;;;;;;;;;10352544;28;20069;-73
2023/07/18 06:46:28;;;;;;;15.30;10.73;;;;;;;;;;10346789;28;20204;-73
2023/07/18 06:51:29;;;;;;;18.13;10.80;;;;;;;;;;10355989;28;20052;-73
2023/07/18 06:56:29;;;;;;;21.75;10.50;;;;;;;;;;10356200;28;20314;-74
2023/07/18 07:01:29;;;;;;;16.42;10.65;;;;;;;;;;10355420;28;20482;-74
2023/07/18 07:06:30;;;;;;;20.63;10.68;;;;;;;;;;10367919;28;20029;-73
2023/07/18 07:11:30;;;;;;;21.08;11.50;;;;;;;;;;10351833;28;20476;-74
2023/07/18 07:16:30;;;;;;;18.77;11.02;;;;;;;;;;10353030;28;20022;-74
2023/07/18 07:21:31;;;;;;;24.15;11.80;;;;;;;;;;10342251;28;20192;-74
2023/07/18 07:26:31;;;;;;;22.67;11.07;;;;;;;;;;10352135;28;20331;-74
2023/07/18 07:31:31;;;;;;;18.80;10.93;;;;;;;;;;10356351;28;20022;-73
2023/07/18 07:36:33;;;;;;;22.38;11.10;;;;;;;;;;10350357;28;20029;-73
2023/07/18 07:41:34;;;;;;;18.85;9.45;;;;;;;;;;10355630;28;20195;-73
2023/07/18 07:46:35;;;;;;;16.35;11.00;;;;;;;;;;10351305;28;20088;-73
2023/07/18 07:51:35;;;;;;;12.70;9.60;;;;;;;;;;10350203;28;20142;-73
2023/07/18 07:56:35;;;;;;;13.83;8.70;;;;;;;;;;10351442;28;20022;-72
2023/07/18 08:01:35;;;;;;;17.80;9.30;;;;;;;;;;10349330;28;20014;-73
2023/07/18 08:06:36;;;;;;;15.15;9.82;;;;;;;;;;10352395;28;20033;-73
2023/07/18 08:11:36;;;;;;;15.98;9.68;;;;;;;;;;10357253;28;20030;-73
2023/07/18 08:16:36;;;;;;;13.83;8.80;;;;;;;;;;10360172;28;20061;-72
2023/07/18 08:21:37;;;;;;;15.90;9.88;;;;;;;;;;10356583;28;20027;-73
2023/07/18 08:26:37;;;;;;;11.98;9.18;;;;;;;;;;10361033;28;20419;-72
2023/07/18 08:31:37;;;;;;;16.77;8.83;;;;;;;;;;10356895;28;20014;-73
2023/07/18 08:36:39;;;;;;;11.00;8.77;;;;;;;;;;10354870;28;20049;-72
2023/07/18 08:41:42;;;;;;;11.68;8.07;;;;;;;;;;10357181;28;20045;-73
2023/07/18 08:46:46;;;;;;;13.02;9.32;;;;;;;;;;10363715;28;20037;-74
2023/07/18 08:51:48;;;;;;;16.20;8.57;;;;;;;;;;10356817;28;20018;-73
2023/07/18 08:56:48;;;;;;;11.48;8.98;;;;;;;;;;10354738;28;20017;-74
2023/07/18 09:01:51;;;;;;;15.52;9.40;;;;;;;;;;10369546;28;20029;-74
2023/07/18 09:06:56;;;;;;;12.75;8.45;;;;;;;;;;10346552;28;20041;-74
2023/07/18 09:12:00;;;;;;;17.42;9.48;;;;;;;;;;10358956;28;20220;-75
2023/07/18 09:17:04;;;;;;;15.02;8.15;;;;;;;;;;10353144;28;20017;-74
2023/07/18 09:22:05;;;;;;;13.77;9.23;;;;;;;;;;10369403;28;20022;-74
2023/07/18 09:27:07;;;;;;;21.95;8.32;;;;;;;;;;10354843;28;20034;-74
2023/07/18 09:32:14;;;;;;;19.60;7.28;;;;;;;;;;10361127;28;20038;-74
2023/07/18 09:37:14;;;;;;;18.05;8.48;;;;;;;;;;10355151;28;20033;-73
2023/07/18 09:42:16;;;;;;;15.77;9.60;;;;;;;;;;10369432;28;20574;-73
2023/07/18 09:47:17;;;;;;;17.63;10.43;;;;;;;;;;10364479;28;20236;-75
2023/07/18 09:52:22;;;;;;;20.88;12.20;;;;;;;;;;10384878;28;20032;-75
2023/07/18 09:57:22;;;;;;;15.60;11.30;;;;;;;;;;10411935;28;20033;-75
2023/07/18 10:02:23;;;;;;;11.23;8.73;;;;;;;;;;10388089;28;20354;-73
2023/07/18 10:07:25;;;;;;;19.13;9.50;;;;;;;;;;10399338;28;20033;-74
2023/07/18 10:12:25;;;;;;;8.95;6.85;;;;;;;;;;10393030;28;20046;-75
2023/07/18 10:17:26;;;;;;;15.90;7.30;;;;;;;;;;10407678;28;20026;-74
2023/07/18 10:22:30;;;;;;;11.23;5.82;;;;;;;;;;10399316;28;20026;-75
2023/07/18 10:27:36;;;;;;;14.27;6.90;;;;;;;;;;10389869;28;20431;-74
2023/07/18 10:32:37;;;;;;;10.50;6.65;;;;;;;;;;10392335;28;20195;-76
2023/07/18 10:37:41;;;;;;;16.38;6.72;;;;;;;;;;10409096;28;20097;-74
2023/07/18 10:42:42;;;;;;;12.75;6.72;;;;;;;;;;10407375;28;20101;-74
2023/07/18 10:47:42;;;;;;;8.18;6.05;;;;;;;;;;10398645;28;20362;-74
2023/07/18 10:52:43;;;;;;;10.60;5.45;;;;;;;;;;10404488;28;20319;-76
2023/07/18 10:57:44;;;;;;;7.05;4.60;;;;;;;;;;10388783;28;20024;-74
2023/07/18 11:02:46;;;;;;;4.78;3.35;;;;;;;;;;10394376;28;20025;-75
2023/07/18 11:07:47;;;;;;;5.03;3.47;;;;;;;;;;10406139;28;20029;-74
2023/07/18 11:12:51;;;;;;;6.00;3.40;;;;;;;;;;10404237;28;20365;-75
2023/07/18 11:17:53;;;;;;;6.18;3.15;;;;;;;;;;10398873;28;20088;-75
2023/07/18 11:22:53;;;;;;;5.82;3.08;;;;;;;;;;10396870;28;20029;-73
2023/07/18 11:27:54;;;;;;;6.20;3.50;;;;;;;;;;10415852;28;20021;-73
2023/07/18 11:32:54;;;;;;;4.00;3.10;;;;;;;;;;10417609;28;20052;-73
2023/07/18 11:37:54;;;;;;;7.40;3.67;;;;;;;;;;10390362;28;20076;-73
2023/07/18 11:42:58;;;;;;;8.23;3.63;;;;;;;;;;10387970;28;20030;-73
2023/07/18 11:47:59;;;;;;;8.82;4.07;;;;;;;;;;10400702;28;20052;-73
2023/07/18 11:53:02;;;;;;;10.35;3.55;;;;;;;;;;10409560;28;20223;-76
2023/07/18 11:58:07;;;;;;;6.75;3.38;;;;;;;;;;10385962;28;20057;-75
2023/07/18 12:03:08;;;;;;;5.57;3.17;;;;;;;;;;10356867;28;20018;-71
2023/07/18 12:08:08;;;;;;;7.15;3.85;;;;;;;;;;10357041;28;20022;-75
2023/07/18 12:13:08;;;;;;;15.53;3.97;;;;;;;;;;10356877;28;20422;-72
2023/07/18 12:18:08;;;;;;;8.15;3.40;;;;;;;;;;10359300;28;21184;-71
2023/07/18 12:23:09;;;;;;;6.82;3.40;;;;;;;;;;10357802;28;20435;-75
2023/07/18 12:28:09;;;;;;;5.13;3.63;;;;;;;;;;10358186;28;20316;-75
2023/07/18 12:33:09;;;;;;;11.73;4.10;;;;;;;;;;10363156;28;20068;-72
2023/07/18 12:38:10;;;;;;;7.53;3.83;;;;;;;;;;10361153;28;20065;-72
2023/07/18 12:43:10;;;;;;;6.90;3.85;;;;;;;;;;10361492;28;20034;-77
2023/07/18 12:48:11;;;;;;;6.63;3.45;;;;;;;;;;10360893;28;20570;-72
2023/07/18 12:53:11;;;;;;;4.78;3.38;;;;;;;;;;10368616;28;20044;-74
2023/07/18 12:58:11;;;;;;;6.53;3.72;;;;;;;;;;10373046;28;20395;-74
2023/07/18 13:03:12;;;;;;;14.00;4.90;;;;;;;;;;10369837;28;20025;-72
2023/07/18 13:08:13;;;;;;;6.97;3.83;;;;;;;;;;10371929;28;20026;-71
2023/07/18 13:13:13;;;;;;;5.82;4.20;;;;;;;;;;10368963;28;20315;-70
2023/07/18 13:18:13;;;;;;;9.73;4.30;;;;;;;;;;10371164;28;20030;-71
2023/07/18 13:23:14;;;;;;;10.07;4.07;;;;;;;;;;10370159;28;20081;-72
2023/07/18 13:28:15;;;;;;;6.55;3.50;;;;;;;;;;10372411;28;20431;-74
2023/07/18 13:33:16;;;;;;;6.10;4.03;;;;;;;;;;10370539;28;20021;-73
2023/07/18 13:38:16;;;;;;;6.60;4.32;;;;;;;;;;10368777;28;20193;-71
2023/07/18 13:43:16;;;;;;;9.70;3.95;;;;;;;;;;10368053;28;20235;-71
2023/07/18 13:48:16;;;;;;;14.32;4.30;;;;;;;;;;10366640;28;20042;-74
2023/07/18 13:53:17;;;;;;;8.85;4.50;;;;;;;;;;10365381;28;20020;-74
2023/07/18 13:58:17;;;;;;;6.57;3.85;;;;;;;;;;10368520;28;20367;-74
2023/07/18 14:03:17;;;;;;;6.53;3.90;;;;;;;;;;10364849;28;20044;-75
2023/07/18 14:08:17;;;;;;;9.32;4.32;;;;;;;;;;10383045;28;20304;-74
2023/07/18 14:13:18;;;;;;;7.90;3.78;;;;;;;;;;10366675;28;20117;-75
2023/07/18 14:18:18;;;;;;;10.00;4.37;;;;;;;;;;10361930;28;20311;-76
2023/07/18 14:23:18;;;;;;;5.90;4.07;;;;;;;;;;10364763;28;20280;-76
2023/07/18 14:28:19;;;;;;;6.45;3.83;;;;;;;;;;10364650;28;20014;-75
2023/07/18 14:33:19;;;;;;;16.90;3.23;;;;;;;;;;10364656;28;20029;-75
2023/07/18 14:38:19;;;;;;;6.07;3.17;;;;;;;;;;10365961;28;20080;-75
2023/07/18 14:43:20;;;;;;;8.80;4.07;;;;;;;;;;10368437;28;20334;-76
2023/07/18 14:48:21;;;;;;;6.03;4.30;;;;;;;;;;10365452;28;20038;-76
2023/07/18 14:53:21;;;;;;;6.88;3.80;;;;;;;;;;10369363;28;20058;-76
2023/07/18 14:58:22;;;;;;;9.93;3.43;;;;;;;;;;10367777;28;20358;-74
2023/07/18 15:03:22;;;;;;;6.57;4.57;;;;;;;;;;10362524;28;20077;-76
2023/07/18 15:08:22;;;;;;;7.38;3.45;;;;;;;;;;10365010;28;20094;-76
2023/07/18 15:13:25;;;;;;;8.45;3.65;;;;;;;;;;10364760;28;20018;-76
2023/07/18 15:18:25;;;;;;;6.95;3.50;;;;;;;;;;10359072;28;20030;-75
2023/07/18 15:23:26;;;;;;;7.18;4.95;;;;;;;;;;10367309;28;20029;-74
2023/07/18 15:28:26;;;;;;;4.70;3.40;;;;;;;;;;10363634;28;20097;-73
2023/07/18 15:33:26;;;;;;;4.22;3.42;;;;;;;;;;10362737;28;20096;-73
2023/07/18 15:38:27;;;;;;;8.25;3.78;;;;;;;;;;10362930;28;20029;-74
2023/07/18 15:43:27;;;;;;;9.35;3.97;;;;;;;;;;10349789;28;20089;-73
2023/07/18 15:48:28;;;;;;;15.37;3.70;;;;;;;;;;10378949;28;20073;-71
2023/07/18 15:53:28;;;;;;;11.15;3.65;;;;;;;;;;10363491;28;20025;-74
2023/07/18 15:58:28;;;;;;;6.13;3.67;;;;;;;;;;10366835;28;20038;-72
2023/07/18 16:03:28;;;;;;;14.15;4.70;;;;;;;;;;10362232;28;20391;-69
2023/07/18 16:08:29;;;;;;;4.63;3.80;;;;;;;;;;10361778;28;20033;-75
2023/07/18 16:13:31;;;;;;;6.90;3.70;;;;;;;;;;10359428;28;20351;-67
2023/07/18 16:18:31;;;;;;;6.50;3.40;;;;;;;;;;10368235;28;20034;-67
2023/07/18 16:23:31;;;;;;;9.73;3.95;;;;;;;;;;10357497;28;20037;-69
2023/07/18 16:28:32;;;;;;;8.93;3.58;;;;;;;;;;10365687;28;20046;-67
2023/07/18 16:33:32;;;;;;;5.13;3.60;;;;;;;;;;10365597;28;20313;-67
2023/07/18 16:38:32;;;;;;;7.00;3.30;;;;;;;;;;10366835;28;20033;-67
2023/07/18 16:43:34;;;;;;;6.03;3.55;;;;;;;;;;10368343;28;20275;-67
2023/07/18 16:48:34;;;;;;;7.60;3.55;;;;;;;;;;10367222;28;20228;-72
2023/07/18 16:53:34;;;;;;;6.93;3.75;;;;;;;;;;10372558;28;20045;-75
2023/07/18 16:58:34;;;;;;;14.32;4.07;;;;;;;;;;10369230;28;20025;-75
2023/07/18 17:03:35;;;;;;;9.35;3.67;;;;;;;;;;10368490;28;20025;-72
2023/07/18 17:08:38;;;;;;;8.38;3.90;;;;;;;;;;10367248;28;20307;-72
2023/07/18 17:13:38;;;;;;;10.73;4.72;;;;;;;;;;10364089;28;20105;-73
2023/07/18 17:18:39;;;;;;;10.68;4.20;;;;;;;;;;10364632;28;20515;-72
2023/07/18 17:23:39;;;;;;;10.52;4.28;;;;;;;;;;10360237;28;20219;-71
2023/07/18 17:28:39;;;;;;;9.80;4.40;;;;;;;;;;10362920;28;20371;-73
2023/07/18 17:33:40;;;;;;;8.05;5.03;;;;;;;;;;10363352;28;20017;-71
2023/07/18 17:38:40;;;;;;;7.25;4.28;;;;;;;;;;10366085;28;20021;-72
2023/07/18 17:43:40;;;;;;;13.80;5.57;;;;;;;;;;10365726;28;20034;-72
2023/07/18 17:48:40;;;;;;;7.05;4.55;;;;;;;;;;10362894;28;20022;-68
2023/07/18 17:53:40;;;;;;;10.20;4.22;;;;;;;;;;10364342;28;20193;-67
2023/07/18 17:58:42;;;;;;;10.20;4.35;;;;;;;;;;10363077;28;20022;-67
2023/07/18 18:03:42;;;;;;;6.75;4.78;;;;;;;;;;10367073;28;20112;-68
2023/07/18 18:08:43;;;;;;;8.00;4.38;;;;;;;;;;10366317;28;20426;-68
2023/07/18 18:13:43;;;;;;;7.27;4.83;;;;;;;;;;10370593;28;20302;-67
2023/07/18 18:18:44;;;;;;;9.50;4.50;;;;;;;;;;10366391;28;20282;-66
2023/07/18 18:23:45;;;;;;;11.90;5.80;;;;;;;;;;10364828;28;20030;-68
2023/07/18 18:28:45;;;;;;;7.63;4.10;;;;;;;;;;10367326;28;20279;-67
2023/07/18 18:33:45;;;;;;;12.95;5.25;;;;;;;;;;10370488;28;20345;-66
2023/07/18 18:38:46;;;;;;;9.52;4.20;;;;;;;;;;10368458;28;20473;-68
2023/07/18 18:43:47;;;;;;;11.02;4.93;;;;;;;;;;10374311;28;20022;-73
2023/07/18 18:48:47;;;;;;;7.55;4.15;;;;;;;;;;10370437;28;20030;-73
2023/07/18 18:53:47;;;;;;;6.97;4.05;;;;;;;;;;10361147;28;20375;-72
2023/07/18 18:58:48;;;;;;;9.00;4.47;;;;;;;;;;10367358;28;20104;-72
2023/07/18 19:03:48;;;;;;;23.92;4.53;;;;;;;;;;10360574;28;20261;-73
2023/07/18 19:08:49;;;;;;;11.88;4.93;;;;;;;;;;10360653;28;20030;-71
2023/07/18 19:13:49;;;;;;;8.38;4.53;;;;;;;;;;10365475;28;20085;-73
2023/07/18 19:18:49;;;;;;;8.05;5.32;;;;;;;;;;10362179;28;20026;-73
2023/07/18 19:23:49;;;;;;;10.23;5.10;;;;;;;;;;10369876;28;20256;-74
2023/07/18 19:28:50;;;;;;;8.38;5.03;;;;;;;;;;10372150;28;20050;-79
2023/07/18 19:33:50;;;;;;;9.93;4.88;;;;;;;;;;10349341;28;20022;-70
2023/07/18 19:38:50;;;;;;;7.72;4.88;;;;;;;;;;10351398;28;20272;-68
2023/07/18 19:43:51;;;;;;;11.00;5.18;;;;;;;;;;10356209;28;20488;-76
2023/07/18 19:48:51;;;;;;;12.67;4.47;;;;;;;;;;10357675;28;20026;-69
2023/07/18 19:53:51;;;;;;;6.65;4.63;;;;;;;;;;10360555;28;20025;-70
2023/07/18 19:58:51;;;;;;;11.25;4.78;;;;;;;;;;10354856;28;20263;-70
2023/07/18 20:03:52;;;;;;;9.10;4.60;;;;;;;;;;10358623;28;20133;-72
2023/07/18 20:08:52;;;;;;;7.30;5.03;;;;;;;;;;10365641;28;20049;-71
2023/07/18 20:13:53;;;;;;;9.10;5.68;;;;;;;;;;10363652;28;20311;-70
2023/07/18 20:18:53;;;;;;;7.72;4.55;;;;;;;;;;10368278;28;20345;-71
2023/07/18 20:23:53;;;;;;;8.98;4.07;;;;;;;;;;10362976;28;20265;-75
2023/07/18 20:28:54;;;;;;;11.70;5.70;;;;;;;;;;10365924;28;20374;-73
2023/07/18 20:33:54;;;;;;;11.02;4.47;;;;;;;;;;10367623;28;20490;-75
2023/07/18 20:38:54;;;;;;;11.38;5.38;;;;;;;;;;10362674;28;20043;-74
2023/07/18 20:43:55;;;;;;;11.45;5.50;;;;;;;;;;10360873;28;20084;-76
2023/07/18 20:48:55;;;;;;;10.35;5.60;;;;;;;;;;10361401;28;20042;-74
2023/07/18 20:53:55;;;;;;;14.38;6.53;;;;;;;;;;10363439;28;20022;-79
2023/07/18 20:58:55;;;;;;;12.32;5.70;;;;;;;;;;10363948;28;20096;-75
2023/07/18 21:03:56;;;;;;;9.57;4.85;;;;;;;;;;10367906;28;21040;-73
2023/07/18 21:08:56;;;;;;;6.05;4.55;;;;;;;;;;10362539;28;20026;-75
2023/07/18 21:13:56;;;;;;;6.90;4.68;;;;;;;;;;10368313;28;20041;-69
2023/07/18 21:18:57;;;;;;;8.32;4.93;;;;;;;;;;10367176;28;20323;-68
2023/07/18 21:23:57;;;;;;;12.97;4.73;;;;;;;;;;10386596;28;20026;-69
2023/07/18 21:28:57;;;;;;;7.97;5.20;;;;;;;;;;10370324;28;20018;-69
2023/07/18 21:33:57;;;;;;;11.98;4.50;;;;;;;;;;10349986;28;20262;-72
2023/07/18 21:38:58;;;;;;;16.80;4.80;;;;;;;;;;10350672;28;20038;-70
2023/07/18 21:43:58;;;;;;;9.27;4.47;;;;;;;;;;10362146;28;20284;-69
2023/07/18 21:48:58;;;;;;;9.75;4.22;;;;;;;;;;10397406;28;20037;-69
2023/07/18 21:53:59;;;;;;;7.57;5.00;;;;;;;;;;10413234;28;20036;-68
2023/07/18 21:58:59;;;;;;;8.07;4.50;;;;;;;;;;10417713;28;20045;-68
2023/07/18 22:04:00;;;;;;;10.02;4.55;;;;;;;;;;10419922;28;20466;-69
2023/07/18 22:09:00;;;;;;;9.00;4.68;;;;;;;;;;10421673;28;20025;-69
2023/07/18 22:14:01;;;;;;;7.28;4.65;;;;;;;;;;10399182;28;20300;-70
2023/07/18 22:19:01;;;;;;;9.07;4.60;;;;;;;;;;10398981;28;20028;-70
2023/07/18 22:24:01;;;;;;;6.15;4.50;;;;;;;;;;10400739;28;20323;-68
2023/07/18 22:29:02;;;;;;;9.23;4.85;;;;;;;;;;10394778;28;20321;-69
2023/07/18 22:34:02;;;;;;;8.27;4.57;;;;;;;;;;10420636;28;20032;-69
2023/07/18 22:39:03;;;;;;;6.80;4.78;;;;;;;;;;10420506;28;20358;-68
2023/07/18 22:44:03;;;;;;;7.45;5.40;;;;;;;;;;10420071;28;20056;-69
2023/07/18 22:49:03;;;;;;;6.63;5.00;;;;;;;;;;10391232;28;20040;-69
2023/07/18 22:54:04;;;;;;;10.63;5.28;;;;;;;;;;10419099;28;20017;-69
2023/07/18 22:59:04;;;;;;;11.80;4.57;;;;;;;;;;10419710;28;20327;-69
2023/07/18 23:04:04;;;;;;;7.03;4.75;;;;;;;;;;10403608;28;20025;-69
2023/07/18 23:09:05;;;;;;;5.88;4.15;;;;;;;;;;10378219;28;20049;-69
2023/07/18 23:14:05;;;;;;;7.00;4.63;;;;;;;;;;10378178;28;20017;-69
2023/07/18 23:19:05;;;;;;;8.85;4.60;;;;;;;;;;10377935;28;20304;-70
2023/07/18 23:24:05;;;;;;;7.53;4.53;;;;;;;;;;10378013;28;20022;-69
2023/07/18 23:29:06;;;;;;;16.70;4.10;;;;;;;;;;10377684;28;20022;-69
2023/07/18 23:34:06;;;;;;;7.38;4.28;;;;;;;;;;10377022;28;20463;-70
2023/07/18 23:39:06;;;;;;;6.22;4.10;;;;;;;;;;10377522;28;20244;-69
2023/07/18 23:44:06;;;;;;;4.80;3.60;;;;;;;;;;10383400;28;20323;-69
2023/07/18 23:49:07;;;;;;;8.02;4.40;;;;;;;;;;10413124;28;20064;-70
2023/07/18 23:54:07;;;;;;;12.88;4.93;;;;;;;;;;10377005;28;20009;-69
2023/07/18 23:59:07;;;;;;;6.13;4.20;;;;;;;;;;10395609;28;20076;-70
